createdAt,value
2017-07-12T00:00:14.080Z,99949.52
2017-07-12T00:02:43.128Z,99955.02
2017-07-12T00:05:12.935Z,99950.50
2017-07-12T00:07:42.785Z,99951.09
2017-07-12T00:10:12.212Z,99947.36
2017-07-12T00:12:41.286Z,99941.67
2017-07-12T00:15:10.358Z,99942.64
2017-07-12T00:17:39.463Z,99944.41
2017-07-12T00:20:08.528Z,99943.03
2017-07-12T00:22:37.623Z,99932.23
2017-07-12T00:25:06.670Z,99936.35
2017-07-12T00:27:35.731Z,99929.23
2017-07-12T00:30:04.836Z,99934.73
2017-07-12T00:32:33.896Z,99930.22
2017-07-12T00:35:03.005Z,99935.77
2017-07-12T00:37:32.058Z,99930.84
2017-07-12T00:40:01.121Z,99933.76
2017-07-12T00:42:30.784Z,99934.97
2017-07-12T00:45:00.172Z,99929.27
2017-07-12T00:47:29.249Z,99922.59
2017-07-12T00:50:01.319Z,99925.94
2017-07-12T00:52:30.380Z,99924.75
2017-07-12T00:54:59.455Z,99927.12
2017-07-12T00:57:29.267Z,99924.76
2017-07-12T00:59:59.106Z,99920.24
2017-07-12T01:02:28.922Z,99923.98
2017-07-12T01:04:58.253Z,99917.33
2017-07-12T01:07:27.351Z,99907.70
2017-07-12T01:09:56.400Z,99900.03
2017-07-12T01:12:25.470Z,99893.95
2017-07-12T01:14:54.515Z,99903.39
2017-07-12T01:17:23.617Z,99894.34
2017-07-12T01:19:52.665Z,99888.05
2017-07-12T01:22:21.704Z,99888.84
2017-07-12T01:24:50.759Z,99897.29
2017-07-12T01:27:20.828Z,99892.77
2017-07-12T01:29:49.873Z,99882.36
2017-07-12T01:32:19.706Z,99878.82
2017-07-12T01:34:48.769Z,99888.64
2017-07-12T01:37:18.602Z,99886.48
2017-07-12T01:39:48.454Z,99890.27
2017-07-12T01:42:17.524Z,99884.16
2017-07-12T01:44:46.592Z,99880.98
2017-07-12T01:47:15.648Z,99888.26
2017-07-12T01:49:44.692Z,99879.45
2017-07-12T01:52:13.764Z,99878.66
2017-07-12T01:54:42.805Z,99885.93
2017-07-12T01:57:11.857Z,99883.78
2017-07-12T01:59:41.673Z,99884.56
2017-07-12T02:02:10.757Z,99872.37
2017-07-12T02:04:39.817Z,99865.53
2017-07-12T02:07:08.876Z,99863.37
2017-07-12T02:09:37.942Z,99858.42
2017-07-12T02:12:06.969Z,99857.04
2017-07-12T02:14:36.033Z,99849.37
2017-07-12T02:17:05.105Z,99847.21
2017-07-12T02:19:34.177Z,99844.45
2017-07-12T02:22:03.256Z,99853.50
2017-07-12T02:24:32.317Z,99864.86
2017-07-12T02:27:01.722Z,99857.42
2017-07-12T02:29:30.740Z,99852.91
2017-07-12T02:31:59.819Z,99850.75
2017-07-12T02:34:29.640Z,99855.47
2017-07-12T02:36:58.710Z,99850.75
2017-07-12T02:39:27.772Z,99850.39
2017-07-12T02:41:56.872Z,99846.03
2017-07-12T02:51:12.440Z,99829.83
2017-07-12T02:53:42.273Z,99824.72
2017-07-12T02:56:11.343Z,99826.84
2017-07-12T02:58:41.170Z,99827.82
2017-07-12T03:01:10.360Z,99825.66
2017-07-12T03:03:39.508Z,99820.39
2017-07-12T03:06:08.560Z,99818.23
2017-07-12T03:08:37.603Z,99811.12
2017-07-12T03:11:06.664Z,99806.60
2017-07-12T03:13:35.738Z,99802.47
2017-07-12T03:16:04.818Z,99795.40
2017-07-12T03:18:33.863Z,99801.66
2017-07-12T03:21:02.924Z,99806.14
2017-07-12T03:23:32.758Z,99798.70
2017-07-12T03:26:01.886Z,99797.33
2017-07-12T03:28:30.943Z,99791.00
2017-07-12T03:31:00.753Z,99782.78
2017-07-12T03:33:29.809Z,99788.68
2017-07-12T03:35:58.881Z,99786.88
2017-07-12T03:38:27.932Z,99784.48
2017-07-12T03:40:57.767Z,99782.31
2017-07-12T03:43:26.810Z,99771.66
2017-07-12T03:45:55.895Z,99776.96
2017-07-12T03:48:24.949Z,99777.11
2017-07-12T03:50:54.031Z,99769.84
2017-07-12T03:53:23.085Z,99775.34
2017-07-12T03:55:52.159Z,99770.44
2017-07-12T03:58:21.231Z,99771.58
2017-07-12T04:00:50.295Z,99770.00
2017-07-12T04:03:20.133Z,99762.14
2017-07-12T04:05:49.208Z,99762.88
2017-07-12T04:08:19.857Z,99763.27
2017-07-12T04:10:48.905Z,99772.06
2017-07-12T04:13:17.970Z,99771.87
2017-07-12T04:15:47.800Z,99759.69
2017-07-12T04:18:16.889Z,99763.58
2017-07-12T04:20:45.960Z,99763.77
2017-07-12T04:23:15.023Z,99745.16
2017-07-12T04:25:44.842Z,99743.39
2017-07-12T04:28:13.904Z,99744.57
2017-07-12T04:30:42.954Z,99739.47
2017-07-12T04:33:12.021Z,99732.98
2017-07-12T04:35:41.832Z,99733.92
2017-07-12T04:38:10.885Z,99736.67
2017-07-12T04:40:40.739Z,99724.09
2017-07-12T04:43:10.610Z,99722.09
2017-07-12T04:45:39.644Z,99723.27
2017-07-12T04:48:09.482Z,99728.76
2017-07-12T04:50:38.548Z,99728.37
2017-07-12T04:53:08.424Z,99723.85
2017-07-12T04:55:37.481Z,99717.77
2017-07-12T04:58:06.554Z,99715.38
2017-07-12T05:00:35.625Z,99721.66
2017-07-12T05:03:04.678Z,99716.98
2017-07-12T05:05:34.861Z,99713.25
2017-07-12T05:08:03.905Z,99705.60
2017-07-12T05:10:33.053Z,99703.67
2017-07-12T05:13:02.163Z,99707.17
2017-07-12T05:15:31.200Z,99703.05
2017-07-12T05:18:00.254Z,99698.97
2017-07-12T05:20:30.060Z,99693.08
2017-07-12T05:23:01.275Z,99691.66
2017-07-12T05:25:30.352Z,99675.95
2017-07-12T05:27:59.408Z,99681.27
2017-07-12T05:30:28.471Z,99676.20
2017-07-12T05:32:57.559Z,99672.47
2017-07-12T05:35:26.625Z,99669.76
2017-07-12T05:37:55.974Z,99673.69
2017-07-12T05:40:25.939Z,99673.52
2017-07-12T05:42:54.996Z,99672.70
2017-07-12T05:45:24.416Z,99676.98
2017-07-12T05:47:53.467Z,99666.81
2017-07-12T05:50:22.542Z,99657.00
2017-07-12T05:52:52.300Z,99650.75
2017-07-12T05:55:21.434Z,99655.46
2017-07-12T05:57:50.648Z,99661.12
2017-07-12T06:00:19.745Z,99658.73
2017-07-12T06:02:48.832Z,99657.34
2017-07-12T06:05:17.904Z,99653.78
2017-07-12T06:07:46.944Z,99648.67
2017-07-12T06:10:16.020Z,99650.47
2017-07-12T06:12:45.125Z,99647.53
2017-07-12T06:15:15.053Z,99654.02
2017-07-12T06:17:44.877Z,99650.48
2017-07-12T06:20:13.960Z,99651.30
2017-07-12T06:22:43.030Z,99650.52
2017-07-12T06:25:12.116Z,99653.86
2017-07-12T06:27:41.223Z,99662.30
2017-07-12T06:30:10.289Z,99652.09
2017-07-12T06:32:39.355Z,99647.96
2017-07-12T06:35:08.416Z,99656.02
2017-07-12T06:37:37.503Z,99657.74
2017-07-12T06:40:06.537Z,99651.84
2017-07-12T06:42:36.361Z,99648.13
2017-07-12T06:45:05.444Z,99649.10
2017-07-12T06:47:35.269Z,99645.02
2017-07-12T06:50:04.323Z,99638.15
2017-07-12T06:52:34.929Z,99635.63
2017-07-12T06:55:03.973Z,99634.29
2017-07-12T06:57:33.792Z,99629.97
2017-07-12T07:00:03.652Z,99626.86
2017-07-12T07:02:32.718Z,99621.75
2017-07-12T07:05:01.845Z,99625.28
2017-07-12T07:07:30.889Z,99617.84
2017-07-12T07:09:59.969Z,99615.71
2017-07-12T07:12:29.044Z,99604.69
2017-07-12T07:14:58.085Z,99601.93
2017-07-12T07:17:27.885Z,99600.75
2017-07-12T07:19:56.976Z,99607.02
2017-07-12T07:22:26.812Z,99607.41
2017-07-12T07:24:55.905Z,99595.42
2017-07-12T07:27:24.929Z,99599.95
2017-07-12T07:29:54.004Z,99589.48
2017-07-12T07:32:23.069Z,99586.53
2017-07-12T07:34:52.891Z,99586.93
2017-07-12T07:37:21.967Z,99576.72
2017-07-12T07:39:51.005Z,99571.84
2017-07-12T07:42:20.077Z,99565.55
2017-07-12T07:44:49.896Z,99568.91
2017-07-12T07:47:18.966Z,99568.52
2017-07-12T07:49:48.807Z,99561.45
2017-07-12T07:52:17.849Z,99556.75
2017-07-12T07:54:46.949Z,99558.14
2017-07-12T07:57:16.009Z,99558.93
2017-07-12T07:59:45.097Z,99558.36
2017-07-12T08:02:14.174Z,99557.58
2017-07-12T08:04:43.653Z,99564.64
2017-07-12T08:07:12.718Z,99563.52
2017-07-12T08:09:41.785Z,99569.81
2017-07-12T08:12:10.873Z,99571.58
2017-07-12T08:14:39.988Z,99574.31
2017-07-12T08:17:09.290Z,99568.20
2017-07-12T08:19:39.181Z,99567.40
2017-07-12T08:22:08.845Z,99552.27
2017-07-12T08:24:37.888Z,99562.14
2017-07-12T08:27:06.927Z,99557.03
2017-07-12T08:29:36.012Z,99550.36
2017-07-12T08:32:05.043Z,99559.59
2017-07-12T08:34:34.897Z,99549.58
2017-07-12T08:37:03.958Z,99556.05
2017-07-12T08:39:34.222Z,99548.59
2017-07-12T08:42:03.321Z,99540.36
2017-07-12T08:44:32.408Z,99546.05
2017-07-12T08:47:01.462Z,99533.09
2017-07-12T08:49:31.276Z,99519.33
2017-07-12T08:52:00.326Z,99510.67
2017-07-12T08:54:29.376Z,99504.18
2017-07-12T08:56:58.440Z,99505.76
2017-07-12T08:59:27.506Z,99495.71
2017-07-12T09:01:56.545Z,99492.37
2017-07-12T09:04:25.653Z,99487.87
2017-07-12T09:06:55.487Z,99499.07
2017-07-12T09:09:24.549Z,99502.02
2017-07-12T09:11:53.622Z,99502.61
2017-07-12T09:14:22.709Z,99511.05
2017-07-12T09:16:51.769Z,99503.78
2017-07-12T09:19:21.107Z,99503.20
2017-07-12T09:21:50.149Z,99502.22
2017-07-12T09:34:16.013Z,99524.42
2017-07-12T09:36:45.836Z,99522.07
2017-07-12T09:39:15.660Z,99522.86
2017-07-12T09:41:44.731Z,99515.98
2017-07-12T09:44:13.805Z,99517.73
2017-07-12T09:46:42.836Z,99511.27
2017-07-12T09:49:12.700Z,99522.88
2017-07-12T09:51:42.085Z,99524.64
2017-07-12T09:54:11.261Z,99525.41
2017-07-12T09:56:41.061Z,99512.63
2017-07-12T09:59:10.991Z,99521.89
2017-07-12T10:01:40.282Z,99519.31
2017-07-12T10:04:10.104Z,99512.83
2017-07-12T10:06:39.165Z,99519.89
2017-07-12T10:09:08.208Z,99512.05
2017-07-12T10:11:37.295Z,99512.64
2017-07-12T10:14:06.500Z,99507.91
2017-07-12T10:16:35.577Z,99505.16
2017-07-12T10:19:04.612Z,99501.84
2017-07-12T10:21:33.676Z,99499.08
2017-07-12T10:24:02.739Z,99497.50
2017-07-12T10:26:32.560Z,99488.44
2017-07-12T10:29:02.373Z,99482.57
2017-07-12T10:31:31.444Z,99487.06
2017-07-12T10:34:00.509Z,99489.44
2017-07-12T10:36:29.552Z,99487.66
2017-07-12T10:38:58.600Z,99489.64
2017-07-12T10:41:27.669Z,99487.48
2017-07-12T10:43:56.757Z,99489.05
2017-07-12T10:46:25.856Z,99487.48
2017-07-12T10:48:54.919Z,99486.28
2017-07-12T10:51:23.971Z,99483.55
2017-07-12T10:53:53.009Z,99487.67
2017-07-12T10:56:22.832Z,99484.13
2017-07-12T10:58:51.907Z,99482.74
2017-07-12T11:01:20.991Z,99480.39
2017-07-12T11:03:50.069Z,99480.78
2017-07-12T11:06:19.119Z,99474.52
2017-07-12T11:08:48.928Z,99478.45
2017-07-12T11:11:17.987Z,99475.29
2017-07-12T11:13:47.016Z,99471.95
2017-07-12T11:16:16.109Z,99473.91
2017-07-12T11:18:45.953Z,99475.09
2017-07-12T11:21:15.034Z,99471.94
2017-07-12T11:23:44.115Z,99470.77
2017-07-12T11:26:13.953Z,99467.23
2017-07-12T11:28:42.991Z,99468.19
2017-07-12T11:31:12.083Z,99457.59
2017-07-12T11:33:41.120Z,99453.44
2017-07-12T11:36:10.787Z,99439.70
2017-07-12T11:38:39.838Z,99447.77
2017-07-12T11:41:08.908Z,99447.15
2017-07-12T11:43:38.728Z,99439.48
2017-07-12T11:46:07.830Z,99434.16
2017-07-12T11:48:36.909Z,99421.98
2017-07-12T11:51:05.997Z,99424.72
2017-07-12T11:53:35.023Z,99424.51
2017-07-12T11:56:04.165Z,99418.62
2017-07-12T11:58:33.224Z,99421.72
2017-07-12T12:01:02.276Z,99416.63
2017-07-12T12:03:32.109Z,99410.14
2017-07-12T12:06:01.150Z,99403.63
2017-07-12T12:08:30.232Z,99405.80
2017-07-12T12:10:59.311Z,99405.78
2017-07-12T12:13:28.353Z,99412.09
2017-07-12T12:15:57.444Z,99409.34
2017-07-12T12:18:26.496Z,99407.54
2017-07-12T12:20:55.534Z,99407.95
2017-07-12T12:23:24.628Z,99404.77
2017-07-12T12:25:53.678Z,99397.67
2017-07-12T12:28:22.750Z,99401.23
2017-07-12T12:30:52.559Z,99408.54
2017-07-12T12:33:22.416Z,99401.67
2017-07-12T12:35:51.457Z,99407.58
2017-07-12T12:38:21.308Z,99413.89
2017-07-12T12:40:50.363Z,99415.09
2017-07-12T12:43:19.424Z,99424.56
2017-07-12T12:45:48.719Z,99502.08
2017-07-12T12:48:17.780Z,99543.11
2017-07-12T12:50:46.849Z,99586.59
2017-07-12T12:53:16.681Z,99609.77
2017-07-12T12:55:46.529Z,99618.36
2017-07-12T12:58:15.628Z,99619.73
2017-07-12T13:00:44.717Z,99634.28
2017-07-12T13:03:13.780Z,99658.27
2017-07-12T13:05:42.836Z,99674.89
2017-07-12T13:08:12.132Z,99689.22
2017-07-12T13:10:41.171Z,99698.83
2017-07-12T13:13:10.245Z,99706.47
2017-07-12T13:15:39.313Z,99721.55
2017-07-12T13:18:09.216Z,99732.83
2017-07-12T13:20:38.263Z,99742.17
2017-07-12T13:23:07.327Z,99748.09
2017-07-12T13:25:36.384Z,99754.73
2017-07-12T13:28:05.503Z,99765.72
2017-07-12T13:30:34.590Z,99764.23
2017-07-12T13:33:03.756Z,99765.09
2017-07-12T13:35:32.812Z,99765.86
2017-07-12T13:38:01.850Z,99772.77
2017-07-12T13:40:30.901Z,99771.28
2017-07-12T13:42:59.962Z,99771.70
2017-07-12T13:45:29.317Z,99766.48
2017-07-12T13:47:58.437Z,99754.45
2017-07-12T13:50:27.486Z,99741.64
2017-07-12T13:52:56.625Z,99728.24
2017-07-12T13:55:25.645Z,99720.64
2017-07-12T13:57:54.700Z,99749.24
2017-07-12T14:00:23.781Z,99815.29
2017-07-12T14:02:53.608Z,99859.06
2017-07-12T14:05:22.690Z,99882.23
2017-07-12T14:07:52.550Z,99895.04
2017-07-12T14:10:21.605Z,99896.30
2017-07-12T14:12:51.445Z,99910.30
2017-07-12T14:15:21.346Z,99920.97
2017-07-12T14:17:50.397Z,99919.70
2017-07-12T14:20:19.497Z,99924.55
2017-07-12T14:22:48.577Z,99923.45
2017-07-12T14:25:17.653Z,99944.62
2017-07-12T14:27:46.696Z,99950.33
2017-07-12T14:30:15.790Z,99959.56
2017-07-12T14:32:44.825Z,99969.17
2017-07-12T14:35:14.093Z,99962.06
2017-07-12T14:37:43.265Z,99974.62
2017-07-12T14:40:12.380Z,99978.35
2017-07-12T14:42:41.489Z,99990.50
2017-07-12T14:45:11.321Z,99983.52
2017-07-12T14:47:40.390Z,99991.41
2017-07-12T14:50:09.465Z,99991.93
2017-07-12T14:52:38.974Z,99992.45
2017-07-12T14:55:08.213Z,100000.05
2017-07-12T14:57:37.285Z,99995.02
2017-07-12T15:00:07.112Z,100002.30
2017-07-12T15:02:36.167Z,100007.86
2017-07-12T15:05:06.766Z,100022.45
2017-07-12T15:07:35.828Z,100024.66
2017-07-12T15:10:04.908Z,100026.36
2017-07-12T15:12:33.945Z,100035.19
2017-07-12T15:15:03.096Z,100068.34
2017-07-12T15:17:32.128Z,100082.84
2017-07-12T15:20:01.211Z,100084.27
2017-07-12T15:22:31.185Z,100093.02
2017-07-12T15:25:00.283Z,100129.08
2017-07-12T15:27:29.354Z,100126.16
2017-07-12T15:29:58.970Z,100127.34
2017-07-12T15:32:28.047Z,100145.67
2017-07-12T15:34:57.128Z,100147.17
2017-07-12T15:37:26.201Z,100148.36
2017-07-12T15:39:56.036Z,100161.59
2017-07-12T15:42:25.101Z,100175.49
2017-07-12T15:44:54.935Z,100183.70
2017-07-12T15:47:23.978Z,100187.83
2017-07-12T15:49:53.049Z,100198.00
2017-07-12T15:52:22.098Z,100209.61
2017-07-12T15:54:51.186Z,100227.57
2017-07-12T15:57:20.246Z,100230.63
2017-07-12T15:59:49.319Z,100240.19
2017-07-12T16:02:19.252Z,100248.59
2017-07-12T16:04:48.320Z,100268.90
2017-07-12T16:07:17.366Z,100276.16
2017-07-12T16:09:46.557Z,100285.06
2017-07-12T16:12:15.652Z,100287.56
2017-07-12T16:14:44.986Z,100296.46
2017-07-12T16:17:14.792Z,100300.50
2017-07-12T16:19:44.626Z,100314.87
2017-07-12T16:22:13.692Z,100319.70
2017-07-12T16:24:43.535Z,100325.42
2017-07-12T16:27:12.612Z,100339.73
2017-07-12T16:29:42.432Z,100344.67
2017-07-12T16:32:11.545Z,100350.52
2017-07-12T16:34:40.618Z,100352.34
2017-07-12T16:37:10.462Z,100362.55
2017-07-12T16:39:39.554Z,100362.72
2017-07-12T16:42:08.608Z,100363.98
2017-07-12T16:44:38.430Z,100371.69
2017-07-12T16:47:08.678Z,100377.20
2017-07-12T16:49:38.493Z,100385.94
2017-07-12T16:52:07.568Z,100400.86
2017-07-12T16:54:36.685Z,100401.02
2017-07-12T16:57:05.769Z,100404.62
2017-07-12T16:59:34.903Z,100414.50
2017-07-12T17:02:04.692Z,100429.17
2017-07-12T17:04:33.752Z,100432.35
2017-07-12T17:07:03.576Z,100439.65
2017-07-12T17:09:32.674Z,100444.99
2017-07-12T17:12:01.897Z,100454.59
2017-07-12T17:14:32.390Z,100466.38
2017-07-12T17:17:01.461Z,100470.48
2017-07-12T17:19:30.578Z,100482.39
2017-07-12T17:21:59.626Z,100482.62
2017-07-12T17:24:28.718Z,100481.98
2017-07-12T17:26:57.785Z,100489.28
2017-07-12T17:29:26.841Z,100495.02
2017-07-12T17:31:56.151Z,100502.97
2017-07-12T17:34:25.220Z,100503.48
2017-07-12T17:36:54.307Z,100504.97
2017-07-12T17:39:23.381Z,100515.15
2017-07-12T17:41:52.455Z,100518.16
2017-07-12T17:44:21.969Z,100524.26
2017-07-12T17:46:51.017Z,100531.75
2017-07-12T17:49:20.095Z,100540.89
2017-07-12T17:51:49.165Z,100548.80
2017-07-12T17:54:18.501Z,100549.63
2017-07-12T17:56:47.906Z,100552.91
2017-07-12T17:59:16.976Z,100555.11
2017-07-12T18:01:46.028Z,100557.09
2017-07-12T18:04:15.896Z,100571.63
2017-07-12T18:06:44.998Z,100577.48
2017-07-12T18:09:14.093Z,100579.61
2017-07-12T18:11:43.166Z,100590.69
2017-07-12T18:14:12.244Z,100588.05
2017-07-12T18:16:41.330Z,100590.84
2017-07-12T18:19:10.406Z,100602.78
2017-07-12T18:21:40.264Z,100604.69
2017-07-12T18:24:09.309Z,100615.18
2017-07-12T18:26:39.188Z,100621.05
2017-07-12T18:29:08.305Z,100622.33
2017-07-12T18:31:37.380Z,100620.92
2017-07-12T18:34:06.437Z,100629.14
2017-07-12T18:36:35.500Z,100640.91
2017-07-12T18:39:05.405Z,100636.72
2017-07-12T18:41:34.436Z,100651.16
2017-07-12T18:44:03.522Z,100654.79
2017-07-12T18:46:32.600Z,100658.73
2017-07-12T18:49:02.412Z,100665.69
2017-07-12T18:51:32.357Z,100670.11
2017-07-12T18:54:01.436Z,100665.30
2017-07-12T18:56:31.264Z,100668.98
2017-07-12T18:59:00.328Z,100675.00
2017-07-12T19:01:30.160Z,100677.43
2017-07-12T19:03:59.230Z,100671.11
2017-07-12T19:06:28.321Z,100683.84
2017-07-12T19:08:57.386Z,100685.16
2017-07-12T19:11:26.440Z,100685.03
2017-07-12T19:13:56.269Z,100692.46
2017-07-12T19:16:25.348Z,100696.48
2017-07-12T19:18:54.412Z,100692.33
2017-07-12T19:21:23.504Z,100706.42
2017-07-12T19:23:52.581Z,100708.30
2017-07-12T19:26:21.653Z,100724.34
2017-07-12T19:28:50.729Z,100721.09
2017-07-12T19:31:19.810Z,100723.44
2017-07-12T19:33:48.950Z,100726.98
2017-07-12T19:36:18.048Z,100736.39
2017-07-12T19:38:47.125Z,100730.78
2017-07-12T19:41:16.211Z,100732.33
2017-07-12T19:43:45.281Z,100740.85
2017-07-12T19:46:14.745Z,100748.27
2017-07-12T19:48:43.840Z,100748.45
2017-07-12T19:51:13.254Z,100760.12
2017-07-12T19:53:42.358Z,100761.10
2017-07-12T19:56:11.507Z,100764.62
2017-07-12T19:58:40.749Z,100770.89
2017-07-12T20:01:10.592Z,100775.57
2017-07-12T20:03:39.850Z,100784.23
2017-07-12T20:06:08.917Z,100787.61
2017-07-12T20:08:38.000Z,100796.41
2017-07-12T20:11:07.068Z,100793.65
2017-07-12T20:13:36.363Z,100808.48
2017-07-12T20:16:05.403Z,100810.85
2017-07-12T20:18:34.478Z,100816.84
2017-07-12T20:21:03.606Z,100816.36
2017-07-12T20:23:33.482Z,100826.72
2017-07-12T20:26:02.469Z,100827.91
2017-07-12T20:28:32.356Z,100834.03
2017-07-12T20:31:01.424Z,100830.92
2017-07-12T20:33:30.484Z,100832.95
2017-07-12T20:35:59.574Z,100841.72
2017-07-12T20:38:29.409Z,100851.95
2017-07-12T20:40:58.463Z,100846.84
2017-07-12T20:43:27.545Z,100852.71
2017-07-12T20:45:56.601Z,100854.37
2017-07-12T20:48:25.685Z,100858.98
2017-07-12T20:50:54.738Z,100858.53
2017-07-12T20:53:23.808Z,100866.08
2017-07-12T20:55:52.881Z,100869.25
2017-07-12T20:58:21.926Z,100880.48
2017-07-12T21:00:50.994Z,100881.56
2017-07-12T21:03:20.055Z,100888.00
2017-07-12T21:05:49.116Z,100893.64
2017-07-12T21:08:18.929Z,100899.59
2017-07-12T21:10:48.108Z,100904.53
2017-07-12T21:13:17.612Z,100907.31
2017-07-12T21:15:46.675Z,100909.09
2017-07-12T21:18:15.777Z,100912.00
2017-07-12T21:20:44.855Z,100920.31
2017-07-12T21:23:13.980Z,100925.06
2017-07-12T21:25:43.077Z,100925.00
2017-07-12T21:28:12.113Z,100932.27
2017-07-12T21:30:41.950Z,100930.27
2017-07-12T21:33:11.023Z,100938.70
2017-07-12T21:35:40.841Z,100944.92
2017-07-12T21:38:09.915Z,100948.86
2017-07-12T21:40:39.812Z,100955.08
2017-07-12T21:43:08.873Z,100957.80
2017-07-12T21:45:37.958Z,100953.80
2017-07-12T21:48:07.030Z,100959.36
2017-07-12T21:50:36.072Z,100960.34
2017-07-12T21:53:20.214Z,100968.76
2017-07-12T21:56:12.539Z,100968.11
2017-07-12T21:59:05.176Z,100971.08
2017-07-12T22:01:57.729Z,100983.50
2017-07-12T22:04:50.336Z,100978.78
2017-07-12T22:07:42.948Z,101000.94
2017-07-12T22:10:35.246Z,100993.40
2017-07-12T22:13:27.530Z,100992.75
2017-07-12T22:16:19.800Z,100994.27
2017-07-12T22:19:12.261Z,101000.06
2017-07-12T22:22:04.669Z,101002.45
2017-07-12T22:24:56.999Z,100997.22
2017-07-12T22:27:49.307Z,101005.42
2017-07-12T22:30:41.728Z,101004.78
2017-07-12T22:33:34.022Z,101004.11
2017-07-12T22:36:26.357Z,101006.52
2017-07-12T22:39:00.888Z,101009.95
2017-07-12T22:41:35.493Z,101018.14
2017-07-12T22:44:03.882Z,101019.51
2017-07-12T22:46:32.964Z,101018.84
2017-07-12T22:49:02.072Z,101016.09
2017-07-12T22:51:31.135Z,101025.05
2017-07-12T22:54:00.192Z,101023.08
2017-07-12T22:56:29.281Z,101033.34
2017-07-12T22:58:58.348Z,101031.23
2017-07-12T23:01:28.055Z,101029.30
2017-07-12T23:03:57.107Z,101029.84
2017-07-12T23:06:26.972Z,101027.03
2017-07-12T23:08:56.039Z,101034.50
2017-07-12T23:11:25.127Z,101034.50
2017-07-12T23:13:54.185Z,101032.89
2017-07-12T23:16:23.246Z,101034.88
2017-07-12T23:18:52.307Z,101038.93
2017-07-12T23:21:21.361Z,101043.16
2017-07-12T23:23:50.447Z,101047.52
2017-07-12T23:26:19.580Z,101048.53
2017-07-12T23:28:49.407Z,101052.22
2017-07-12T23:31:18.465Z,101055.66
2017-07-12T23:33:47.528Z,101052.66
2017-07-12T23:36:16.595Z,101051.06
2017-07-12T23:38:45.650Z,101051.14
2017-07-12T23:41:14.749Z,101060.48
2017-07-12T23:43:43.830Z,101057.67
2017-07-12T23:46:12.899Z,101065.28
2017-07-12T23:48:41.959Z,101058.63
2017-07-12T23:51:11.054Z,101063.52
2017-07-12T23:53:40.138Z,101059.71
2017-07-12T23:56:09.953Z,101062.76
2017-07-12T23:58:39.013Z,101065.40
